createdAt,value
2019-01-22T00:01:08.417Z,98.93
2019-01-22T00:02:18.437Z,98.65
2019-01-22T00:03:28.200Z,98.55
2019-01-22T00:04:38.266Z,97.71
2019-01-22T00:05:48.292Z,97.8
2019-01-22T00:06:58.350Z,97.99
2019-01-22T00:08:08.360Z,97.61
2019-01-22T00:09:18.388Z,97.52
2019-01-22T00:10:28.247Z,97.52
2019-01-22T00:11:38.258Z,97.52
2019-01-22T00:12:48.644Z,97.52
2019-01-22T00:13:59.161Z,98.18
2019-01-22T00:15:10.054Z,97.33
2019-01-22T00:16:21.029Z,98.27
2019-01-22T00:17:31.432Z,97.61
2019-01-22T00:18:41.614Z,97.61
2019-01-22T00:19:51.638Z,97.52
2019-01-22T00:21:01.676Z,98.08
2019-01-22T00:22:11.764Z,97.71
2019-01-22T00:23:21.783Z,98.93
2019-01-22T00:24:31.815Z,99.12
2019-01-22T00:25:41.838Z,99.12
2019-01-22T00:26:51.854Z,99.78
2019-01-22T00:28:01.669Z,99.99
2019-01-22T00:29:11.680Z,99.99
2019-01-22T00:30:21.698Z,99.99
2019-01-22T00:31:31.735Z,99.99
2019-01-22T00:32:41.756Z,99.99
2019-01-22T00:33:51.888Z,99.99
2019-01-22T00:35:01.911Z,99.99
2019-01-22T00:36:11.922Z,99.99
2019-01-22T00:37:21.945Z,99.99
2019-01-22T00:38:31.950Z,99.99
2019-01-22T00:39:42.066Z,99.99
2019-01-22T00:40:52.094Z,99.99
2019-01-22T00:42:02.135Z,99.99
2019-01-22T00:43:12.160Z,99.99
2019-01-22T00:44:22.173Z,99.99
2019-01-22T00:45:32.239Z,99.99
2019-01-22T00:46:42.270Z,99.99
2019-01-22T00:47:52.296Z,99.99
2019-01-22T00:49:02.316Z,99.99
2019-01-22T00:50:12.325Z,99.99
2019-01-22T00:51:22.404Z,99.99
2019-01-22T00:52:31.947Z,99.99
2019-01-22T00:53:41.957Z,99.99
2019-01-22T00:54:51.985Z,99.99
2019-01-22T00:56:01.852Z,99.99
2019-01-22T00:57:12.249Z,99.99
2019-01-22T00:58:22.767Z,99.99
2019-01-22T00:59:33.418Z,99.99
2019-01-22T01:00:44.158Z,99.99
2019-01-22T01:01:54.662Z,99.99
2019-01-22T01:03:05.006Z,99.99
2019-01-22T01:04:15.027Z,99.99
2019-01-22T01:05:25.042Z,99.99
2019-01-22T01:06:35.062Z,99.99
2019-01-22T01:07:45.080Z,99.99
2019-01-22T01:08:55.194Z,99.99
2019-01-22T01:10:05.222Z,99.99
2019-01-22T01:11:15.264Z,99.99
2019-01-22T01:12:25.288Z,99.99
2019-01-22T01:13:35.346Z,99.99
2019-01-22T01:14:45.512Z,99.99
2019-01-22T01:15:55.539Z,99.99
2019-01-22T01:17:05.558Z,99.99
2019-01-22T01:18:15.588Z,99.99
2019-01-22T01:19:25.611Z,99.99
2019-01-22T01:20:35.730Z,99.99
2019-01-22T01:21:45.746Z,99.99
2019-01-22T01:22:55.752Z,99.99
2019-01-22T01:24:05.775Z,99.99
2019-01-22T01:25:15.789Z,99.99
2019-01-22T01:26:25.916Z,99.99
2019-01-22T01:27:35.936Z,99.99
2019-01-22T01:28:45.957Z,99.99
2019-01-22T01:29:55.978Z,99.99
2019-01-22T01:31:06.029Z,99.99
2019-01-22T01:32:16.049Z,99.99
2019-01-22T01:33:26.066Z,99.99
2019-01-22T01:34:36.073Z,99.99
2019-01-22T01:35:46.087Z,99.99
2019-01-22T01:36:56.097Z,99.99
2019-01-22T01:38:06.150Z,99.99
2019-01-22T01:39:16.176Z,99.99
2019-01-22T01:40:26.193Z,99.87
2019-01-22T01:41:36.209Z,99.78
2019-01-22T01:42:46.218Z,99.87
2019-01-22T01:43:56.378Z,99.99
2019-01-22T01:45:06.654Z,99.99
2019-01-22T01:46:17.413Z,99.99
2019-01-22T01:47:28.199Z,99.99
2019-01-22T01:48:38.957Z,99.99
2019-01-22T01:49:49.580Z,99.99
2019-01-22T01:50:59.704Z,99.99
2019-01-22T01:52:09.722Z,99.99
2019-01-22T01:53:25.995Z,99.99
2019-01-22T01:54:36.017Z,99.99
2019-01-22T01:55:46.126Z,99.99
2019-01-22T01:56:56.148Z,99.99
2019-01-22T01:58:06.174Z,99.74
2019-01-22T01:59:16.214Z,99.17
2019-01-22T02:00:26.233Z,99.36
2019-01-22T02:01:36.269Z,98.51
2019-01-22T02:02:46.281Z,98.6
2019-01-22T02:03:56.321Z,98.41
2019-01-22T02:05:06.105Z,98.46
2019-01-22T02:06:16.141Z,99.02
2019-01-22T02:07:26.253Z,99.31
2019-01-22T02:08:36.271Z,99.26
2019-01-22T02:09:46.309Z,99.93
2019-01-22T02:10:56.333Z,99.68
2019-01-22T02:12:06.364Z,99.83
2019-01-22T02:13:16.427Z,99.99
2019-01-22T02:14:26.464Z,99.99
2019-01-22T02:15:36.514Z,99.99
2019-01-22T02:16:46.558Z,99.74
2019-01-22T02:17:56.577Z,99.83
2019-01-22T02:19:06.647Z,99.64
2019-01-22T02:20:16.652Z,99.74
2019-01-22T02:21:26.671Z,99.99
2019-01-22T02:22:36.698Z,99.83
2019-01-22T02:23:46.719Z,99.99
2019-01-22T02:24:56.832Z,99.99
2019-01-22T02:26:07.159Z,99.64
2019-01-22T02:27:17.563Z,99.74
2019-01-22T02:28:28.175Z,99.64
2019-01-22T02:29:38.789Z,99.99
2019-01-22T02:30:49.145Z,99.99
2019-01-22T02:31:59.429Z,99.99
2019-01-22T02:33:09.445Z,99.99
2019-01-22T02:34:19.224Z,99.99
2019-01-22T02:35:29.232Z,99.99
2019-01-22T02:36:39.349Z,99.68
2019-01-22T02:37:49.385Z,99.74
2019-01-22T02:38:59.406Z,99.64
2019-01-22T02:40:09.420Z,99.99
2019-01-22T02:41:19.442Z,99.83
2019-01-22T02:42:29.522Z,99.99
2019-01-22T02:43:39.578Z,99.99
2019-01-22T02:44:49.382Z,99.99
2019-01-22T02:45:59.392Z,99.87
2019-01-22T02:47:09.394Z,99.93
2019-01-22T02:48:19.522Z,99.99
2019-01-22T02:49:29.559Z,99.99
2019-01-22T02:50:39.625Z,99.74
2019-01-22T02:51:49.449Z,99.59
2019-01-22T02:52:59.480Z,99.83
2019-01-22T02:54:09.375Z,99.87
2019-01-22T02:55:19.391Z,99.99
2019-01-22T02:56:29.400Z,99.83
2019-01-22T02:57:39.431Z,99.83
2019-01-22T02:58:49.437Z,99.99
2019-01-22T02:59:59.498Z,99.99
2019-01-22T03:01:09.524Z,99.99
2019-01-22T03:02:19.551Z,99.99
2019-01-22T03:03:29.570Z,99.99
2019-01-22T03:04:39.358Z,99.99
2019-01-22T03:05:49.418Z,99.99
2019-01-22T03:06:59.445Z,99.99
2019-01-22T03:08:09.493Z,99.99
2019-01-22T03:09:20.162Z,99.99
2019-01-22T03:10:31.035Z,99.99
2019-01-22T03:11:41.715Z,99.99
2019-01-22T03:12:52.295Z,99.99
2019-01-22T03:14:02.456Z,99.99
2019-01-22T03:15:12.488Z,99.99
2019-01-22T03:16:22.266Z,99.99
2019-01-22T03:17:32.558Z,99.99
2019-01-22T03:18:42.578Z,99.99
2019-01-22T03:19:52.626Z,99.99
2019-01-22T03:21:02.662Z,99.99
2019-01-22T03:22:12.709Z,99.99
2019-01-22T03:23:22.834Z,99.99
2019-01-22T03:24:32.842Z,99.99
2019-01-22T03:25:42.873Z,99.99
2019-01-22T03:26:52.910Z,99.99
2019-01-22T03:28:02.941Z,99.99
2019-01-22T03:29:12.969Z,99.99
2019-01-22T03:30:22.979Z,99.99
2019-01-22T03:31:33.044Z,99.99
2019-01-22T03:32:43.080Z,99.99
2019-01-22T03:33:53.125Z,99.99
2019-01-22T03:35:03.195Z,99.99
2019-01-22T03:36:13.190Z,99.99
2019-01-22T03:37:23.188Z,99.99
2019-01-22T03:38:33.205Z,99.99
2019-01-22T03:39:43.214Z,99.99
2019-01-22T03:40:53.055Z,99.99
2019-01-22T03:42:03.071Z,99.99
2019-01-22T03:43:13.090Z,99.99
2019-01-22T03:44:23.120Z,99.99
2019-01-22T03:45:33.119Z,99.99
2019-01-22T03:46:43.109Z,99.99
2019-01-22T03:47:53.385Z,99.99
2019-01-22T03:49:04.142Z,99.99
2019-01-22T03:50:14.679Z,99.99
2019-01-22T03:51:25.045Z,99.99
2019-01-22T03:52:35.330Z,99.99
2019-01-22T03:53:45.020Z,99.99
2019-01-22T03:55:01.363Z,99.99
2019-01-22T03:56:11.361Z,99.99
2019-01-22T03:57:21.357Z,99.99
2019-01-22T03:58:31.460Z,99.99
2019-01-22T03:59:41.471Z,99.99
2019-01-22T04:00:51.215Z,99.99
2019-01-22T04:02:01.230Z,99.99
2019-01-22T04:03:11.227Z,99.99
2019-01-22T04:04:21.273Z,99.99
2019-01-22T04:05:31.296Z,99.99
2019-01-22T04:06:41.287Z,99.99
2019-01-22T04:07:51.284Z,99.99
2019-01-22T04:09:01.286Z,99.99
2019-01-22T04:10:11.334Z,99.99
2019-01-22T04:11:21.324Z,99.99
2019-01-22T04:12:31.321Z,99.99
2019-01-22T04:13:41.341Z,99.99
2019-01-22T04:14:51.330Z,99.99
2019-01-22T04:16:01.427Z,99.99
2019-01-22T04:17:11.432Z,99.99
2019-01-22T04:18:21.420Z,99.99
2019-01-22T04:19:31.420Z,99.99
2019-01-22T04:20:41.415Z,99.99
2019-01-22T04:21:51.467Z,99.99
2019-01-22T04:23:01.532Z,99.99
2019-01-22T04:24:12.149Z,99.99
2019-01-22T04:25:22.909Z,99.99
2019-01-22T04:26:33.241Z,99.99
2019-01-22T04:27:43.762Z,99.99
2019-01-22T04:28:53.773Z,99.99
2019-01-22T04:30:03.771Z,99.99
2019-01-22T04:31:13.786Z,99.99
2019-01-22T04:32:23.805Z,99.99
2019-01-22T04:33:33.915Z,99.99
2019-01-22T04:34:43.912Z,99.99
2019-01-22T04:35:53.899Z,99.99
2019-01-22T04:37:03.896Z,99.99
2019-01-22T04:38:13.913Z,99.99
2019-01-22T04:39:24.011Z,99.99
2019-01-22T04:40:34.011Z,99.99
2019-01-22T04:41:44.016Z,99.99
2019-01-22T04:42:54.018Z,99.99
2019-01-22T04:44:04.009Z,99.99
2019-01-22T04:45:15.748Z,99.99
2019-01-22T04:46:25.799Z,99.99
2019-01-22T04:47:35.549Z,99.99
2019-01-22T04:48:45.576Z,99.99
2019-01-22T04:49:55.613Z,99.99
2019-01-22T04:51:05.716Z,99.99
2019-01-22T04:52:15.717Z,99.99
2019-01-22T04:53:25.717Z,99.99
2019-01-22T04:54:35.384Z,99.99
2019-01-22T04:55:45.389Z,99.99
2019-01-22T04:56:55.444Z,99.99
2019-01-22T04:58:05.463Z,99.99
2019-01-22T04:59:15.846Z,99.99
2019-01-22T05:00:26.732Z,99.99
2019-01-22T05:01:37.516Z,99.99
2019-01-22T05:02:48.008Z,99.99
2019-01-22T05:03:58.160Z,99.99
2019-01-22T05:05:08.163Z,99.99
2019-01-22T05:06:18.174Z,99.99
2019-01-22T05:07:28.168Z,99.99
2019-01-22T05:08:38.277Z,99.99
2019-01-22T05:09:48.276Z,99.99
2019-01-22T05:10:58.285Z,99.99
2019-01-22T05:12:08.300Z,99.99
2019-01-22T05:13:18.312Z,99.99
2019-01-22T05:14:28.163Z,99.99
2019-01-22T05:15:38.158Z,99.99
2019-01-22T05:16:48.164Z,99.99
2019-01-22T05:17:58.161Z,99.99
2019-01-22T05:19:08.165Z,99.99
2019-01-22T05:20:18.217Z,99.99
2019-01-22T05:21:28.218Z,99.99
2019-01-22T05:22:38.229Z,99.99
2019-01-22T05:23:48.234Z,99.99
2019-01-22T05:24:58.251Z,99.99
2019-01-22T05:26:08.300Z,99.99
2019-01-22T05:27:18.294Z,99.99
2019-01-22T05:28:28.309Z,99.99
2019-01-22T05:29:38.314Z,99.99
2019-01-22T05:30:48.332Z,99.99
2019-01-22T05:31:58.448Z,99.99
2019-01-22T05:33:08.450Z,99.99
2019-01-22T05:34:18.527Z,99.99
2019-01-22T05:35:28.920Z,99.99
2019-01-22T05:36:39.513Z,99.99
2019-01-22T05:37:50.005Z,99.99
2019-01-22T05:39:00.694Z,99.99
2019-01-22T05:40:11.019Z,99.99
2019-01-22T05:41:21.235Z,99.99
2019-01-22T05:42:31.249Z,99.99
2019-01-22T05:43:41.298Z,99.99
2019-01-22T05:44:51.294Z,99.99
2019-01-22T05:46:01.293Z,99.99
2019-01-22T05:47:11.289Z,99.99
2019-01-22T05:48:21.312Z,99.99
2019-01-22T05:49:31.385Z,99.99
2019-01-22T05:50:41.380Z,99.99
2019-01-22T05:51:51.390Z,99.99
2019-01-22T05:53:01.372Z,99.99
2019-01-22T05:54:11.352Z,99.99
2019-01-22T05:55:28.129Z,99.99
2019-01-22T05:56:38.107Z,99.99
2019-01-22T05:57:48.102Z,99.99
2019-01-22T05:58:58.078Z,99.99
2019-01-22T06:00:08.059Z,99.99
2019-01-22T06:01:18.050Z,99.99
2019-01-22T06:02:28.026Z,99.99
2019-01-22T06:03:38.010Z,99.99
2019-01-22T06:04:47.986Z,99.99
2019-01-22T06:05:57.966Z,99.99
2019-01-22T06:07:08.045Z,99.99
2019-01-22T06:08:18.039Z,99.99
2019-01-22T06:09:28.015Z,99.99
2019-01-22T06:10:38.004Z,99.99
2019-01-22T06:11:47.991Z,99.99
2019-01-22T06:12:58.070Z,99.99
2019-01-22T06:14:08.051Z,99.99
2019-01-22T06:15:18.036Z,99.99
2019-01-22T06:16:28.016Z,99.99
2019-01-22T06:17:37.992Z,99.99
2019-01-22T06:18:47.752Z,99.99
2019-01-22T06:19:57.737Z,99.99
2019-01-22T06:21:07.923Z,99.99
2019-01-22T06:22:17.931Z,99.99
2019-01-22T06:23:27.917Z,99.99
2019-01-22T06:24:37.959Z,99.99
2019-01-22T06:25:51.819Z,99.99
2019-01-22T06:27:01.796Z,99.99
2019-01-22T06:28:11.778Z,99.99
2019-01-22T06:29:21.801Z,99.99
2019-01-22T06:30:31.833Z,99.99
2019-01-22T06:31:41.813Z,99.99
2019-01-22T06:32:51.794Z,99.99
2019-01-22T06:34:01.772Z,99.99
2019-01-22T06:35:11.755Z,99.99
2019-01-22T06:36:21.863Z,99.99
2019-01-22T06:37:31.866Z,99.99
2019-01-22T06:38:41.846Z,99.99
2019-01-22T06:39:51.828Z,99.99
2019-01-22T06:41:01.813Z,99.99
2019-01-22T06:42:11.843Z,99.99
2019-01-22T06:43:21.824Z,99.99
2019-01-22T06:44:31.805Z,99.99
2019-01-22T06:45:41.791Z,99.99
2019-01-22T06:46:51.782Z,99.99
2019-01-22T06:48:01.808Z,99.99
2019-01-22T06:49:11.792Z,99.99
2019-01-22T06:50:21.777Z,99.99
2019-01-22T06:51:31.762Z,99.99
2019-01-22T06:52:41.739Z,99.99
2019-01-22T06:53:51.820Z,99.99
2019-01-22T06:55:01.818Z,99.99
2019-01-22T06:56:11.806Z,99.99
2019-01-22T06:57:21.798Z,99.99
2019-01-22T06:58:31.774Z,99.99
2019-01-22T06:59:41.799Z,99.99
2019-01-22T07:00:51.788Z,99.99
2019-01-22T07:02:01.854Z,99.99
2019-01-22T07:03:11.830Z,99.99
2019-01-22T07:04:21.812Z,99.99
2019-01-22T07:05:31.939Z,99.99
2019-01-22T07:06:41.921Z,99.99
2019-01-22T07:07:51.899Z,99.99
2019-01-22T07:09:01.882Z,99.99
2019-01-22T07:10:13.263Z,99.99
2019-01-22T07:11:23.414Z,99.99
2019-01-22T07:12:33.160Z,99.99
2019-01-22T07:13:43.140Z,99.99
2019-01-22T07:14:53.131Z,99.99
2019-01-22T07:16:03.115Z,99.99
2019-01-22T07:17:13.202Z,99.99
2019-01-22T07:18:23.179Z,99.99
2019-01-22T07:19:33.159Z,99.99
2019-01-22T07:20:43.144Z,99.99
2019-01-22T07:21:53.138Z,99.99
2019-01-22T07:23:03.235Z,99.99
2019-01-22T07:24:13.219Z,99.99
2019-01-22T07:25:23.198Z,99.99
2019-01-22T07:26:33.179Z,99.99
2019-01-22T07:27:43.182Z,99.99
2019-01-22T07:28:53.216Z,99.99
2019-01-22T07:30:02.877Z,99.99
2019-01-22T07:31:12.855Z,99.99
2019-01-22T07:32:22.835Z,99.99
2019-01-22T07:33:32.566Z,99.99
2019-01-22T07:34:42.643Z,99.99
2019-01-22T07:35:52.619Z,99.99
2019-01-22T07:37:02.592Z,99.99
2019-01-22T07:38:12.571Z,99.99
2019-01-22T07:39:22.552Z,99.99
2019-01-22T07:40:32.682Z,99.99
2019-01-22T07:41:42.656Z,99.99
2019-01-22T07:42:52.634Z,99.99
2019-01-22T07:44:02.675Z,99.99
2019-01-22T07:45:12.663Z,99.99
2019-01-22T07:46:22.797Z,99.99
2019-01-22T07:47:32.785Z,99.99
2019-01-22T07:48:42.780Z,99.99
2019-01-22T07:49:52.756Z,99.99
2019-01-22T07:51:02.730Z,99.99
2019-01-22T07:52:12.761Z,99.99
2019-01-22T07:53:22.740Z,99.99
2019-01-22T07:54:32.724Z,99.99
2019-01-22T07:55:42.705Z,99.99
2019-01-22T07:56:52.678Z,99.99
2019-01-22T07:58:02.765Z,99.99
2019-01-22T07:59:12.739Z,99.99
2019-01-22T08:00:22.714Z,99.99
2019-01-22T08:01:32.694Z,99.99
2019-01-22T08:02:42.672Z,99.99
2019-01-22T08:03:52.745Z,99.99
2019-01-22T08:05:02.719Z,99.99
2019-01-22T08:06:12.729Z,99.99
2019-01-22T08:07:22.708Z,99.99
2019-01-22T08:08:32.680Z,99.99
2019-01-22T08:09:42.809Z,99.99
2019-01-22T08:10:52.805Z,99.99
2019-01-22T08:12:03.328Z,99.99
2019-01-22T08:13:13.304Z,99.99
2019-01-22T08:14:23.308Z,99.99
2019-01-22T08:15:33.444Z,99.99
2019-01-22T08:16:43.423Z,99.99
2019-01-22T08:17:53.521Z,99.99
2019-01-22T08:19:03.500Z,99.99
2019-01-22T08:20:13.504Z,99.99
2019-01-22T08:21:23.580Z,99.99
2019-01-22T08:22:33.556Z,99.99
2019-01-22T08:23:43.535Z,99.99
2019-01-22T08:24:53.509Z,99.99
2019-01-22T08:26:08.270Z,99.99
2019-01-22T08:27:18.295Z,99.99
2019-01-22T08:28:32.530Z,99.99
2019-01-22T08:29:42.510Z,99.99
2019-01-22T08:30:52.488Z,99.99
2019-01-22T08:32:02.211Z,99.99
2019-01-22T08:33:12.276Z,99.99
2019-01-22T08:34:22.253Z,99.99
2019-01-22T08:35:32.232Z,99.99
2019-01-22T08:36:41.892Z,99.99
2019-01-22T08:37:51.875Z,99.99
2019-01-22T08:39:01.954Z,99.99
2019-01-22T08:40:11.937Z,99.99
2019-01-22T08:41:21.911Z,99.99
2019-01-22T08:42:31.888Z,99.99
2019-01-22T08:43:41.866Z,99.99
2019-01-22T08:44:51.997Z,99.99
2019-01-22T08:46:01.973Z,99.99
2019-01-22T08:47:11.951Z,99.99
2019-01-22T08:48:21.937Z,99.99
2019-01-22T08:49:31.913Z,99.99
2019-01-22T08:50:41.995Z,99.99
2019-01-22T08:51:51.979Z,99.99
2019-01-22T08:53:02.564Z,99.99
2019-01-22T08:54:12.546Z,99.99
2019-01-22T08:55:22.545Z,99.99
2019-01-22T08:56:32.528Z,99.99
2019-01-22T08:57:42.506Z,99.99
2019-01-22T08:58:52.485Z,99.99
2019-01-22T09:00:02.467Z,99.99
2019-01-22T09:01:12.459Z,99.99
2019-01-22T09:02:22.514Z,99.99
2019-01-22T09:03:32.498Z,99.99
2019-01-22T09:04:42.476Z,99.99
2019-01-22T09:05:52.462Z,99.99
2019-01-22T09:07:02.440Z,99.99
2019-01-22T09:08:12.517Z,99.99
2019-01-22T09:09:22.492Z,99.99
2019-01-22T09:10:32.475Z,99.99
2019-01-22T09:11:42.450Z,99.99
2019-01-22T09:12:52.426Z,99.99
2019-01-22T09:14:02.556Z,99.99
2019-01-22T09:15:12.535Z,99.99
2019-01-22T09:16:22.508Z,99.99
2019-01-22T09:17:32.489Z,99.99
2019-01-22T09:18:43.161Z,99.99
2019-01-22T09:19:53.143Z,99.99
2019-01-22T09:21:03.187Z,99.99
2019-01-22T09:22:13.174Z,99.99
2019-01-22T09:23:23.148Z,99.99
2019-01-22T09:24:33.128Z,99.99
2019-01-22T09:25:43.208Z,99.99
2019-01-22T09:26:53.182Z,99.99
2019-01-22T09:28:03.183Z,99.99
2019-01-22T09:29:13.170Z,99.99
2019-01-22T09:30:23.164Z,99.99
2019-01-22T09:31:33.191Z,99.99
2019-01-22T09:32:43.171Z,99.99
2019-01-22T09:33:53.150Z,99.99
2019-01-22T09:35:03.134Z,99.99
2019-01-22T09:36:15.912Z,99.99
2019-01-22T09:37:25.891Z,99.99
2019-01-22T09:38:35.870Z,99.99
2019-01-22T09:39:45.845Z,99.99
2019-01-22T09:40:56.903Z,99.99
2019-01-22T09:42:06.892Z,99.99
2019-01-22T09:43:16.921Z,99.99
2019-01-22T09:44:26.898Z,99.99
2019-01-22T09:45:36.925Z,99.99
2019-01-22T09:46:46.906Z,99.99
2019-01-22T09:47:56.907Z,99.99
2019-01-22T09:49:07.036Z,99.99
2019-01-22T09:50:17.012Z,99.99
2019-01-22T09:51:26.998Z,99.99
2019-01-22T09:52:36.976Z,99.99
2019-01-22T09:53:46.716Z,99.99
2019-01-22T09:54:56.744Z,99.99
2019-01-22T09:56:06.720Z,99.99
2019-01-22T09:57:16.699Z,99.99
2019-01-22T09:58:26.679Z,99.99
2019-01-22T09:59:36.670Z,99.99
2019-01-22T10:00:46.708Z,99.99
2019-01-22T10:01:56.693Z,99.99
2019-01-22T10:03:06.672Z,99.99
2019-01-22T10:04:16.400Z,99.99
2019-01-22T10:05:26.378Z,99.99
2019-01-22T10:06:36.536Z,99.99
2019-01-22T10:07:46.514Z,99.99
2019-01-22T10:08:56.495Z,99.99
2019-01-22T10:10:06.475Z,99.99
2019-01-22T10:11:16.452Z,99.99
2019-01-22T10:12:26.580Z,99.99
2019-01-22T10:13:36.560Z,99.99
2019-01-22T10:14:53.251Z,99.99
2019-01-22T10:16:03.229Z,99.99
2019-01-22T10:17:13.208Z,99.99
2019-01-22T10:18:23.349Z,99.99
2019-01-22T10:19:33.003Z,99.99
2019-01-22T10:20:42.983Z,99.99
2019-01-22T10:21:52.963Z,99.99
2019-01-22T10:23:02.959Z,99.99
2019-01-22T10:24:12.989Z,99.99
2019-01-22T10:25:29.208Z,99.99
2019-01-22T10:26:39.384Z,99.99
2019-01-22T10:27:49.366Z,99.99
2019-01-22T10:28:59.347Z,99.99
2019-01-22T10:30:09.324Z,99.99
2019-01-22T10:31:19.302Z,99.99
2019-01-22T10:32:29.326Z,99.99
2019-01-22T10:33:39.302Z,99.99
2019-01-22T10:34:49.283Z,99.99
2019-01-22T10:35:59.399Z,99.99
2019-01-22T10:37:09.128Z,99.99
2019-01-22T10:38:19.159Z,99.99
2019-01-22T10:39:29.143Z,99.99
2019-01-22T10:40:38.867Z,99.99
2019-01-22T10:41:48.948Z,99.99
2019-01-22T10:42:58.927Z,99.99
2019-01-22T10:44:14.659Z,99.99
2019-01-22T10:45:24.635Z,99.99
2019-01-22T10:46:34.621Z,99.99
2019-01-22T10:47:44.602Z,99.99
2019-01-22T10:48:54.585Z,99.99
2019-01-22T10:50:04.569Z,99.99
2019-01-22T10:51:14.550Z,99.99
2019-01-22T10:52:24.545Z,99.99
2019-01-22T10:53:34.622Z,99.99
2019-01-22T10:54:44.603Z,99.99
2019-01-22T10:55:54.581Z,99.99
2019-01-22T10:57:04.570Z,99.99
2019-01-22T10:58:14.557Z,99.99
2019-01-22T10:59:24.775Z,99.99
2019-01-22T11:00:34.758Z,99.99
2019-01-22T11:01:44.736Z,99.99
2019-01-22T11:02:54.723Z,99.99
2019-01-22T11:04:04.699Z,99.99
2019-01-22T11:05:14.779Z,99.99
2019-01-22T11:06:24.766Z,99.99
2019-01-22T11:07:34.493Z,99.99
2019-01-22T11:08:44.513Z,99.99
2019-01-22T11:09:54.489Z,99.99
2019-01-22T11:11:04.569Z,99.99
2019-01-22T11:12:14.547Z,99.99
2019-01-22T11:13:24.522Z,99.99
2019-01-22T11:14:34.509Z,99.99
2019-01-22T11:15:44.494Z,99.99
2019-01-22T11:16:54.573Z,99.99
2019-01-22T11:18:04.556Z,99.99
2019-01-22T11:19:14.543Z,99.99
2019-01-22T11:20:24.525Z,99.99
2019-01-22T11:21:34.508Z,99.99
2019-01-22T11:22:44.500Z,99.99
2019-01-22T11:23:54.479Z,99.99
2019-01-22T11:25:04.476Z,99.99
2019-01-22T11:26:14.455Z,99.99
2019-01-22T11:27:24.435Z,99.99
2019-01-22T11:28:34.422Z,99.99
2019-01-22T11:29:44.405Z,99.99
2019-01-22T11:30:54.386Z,99.99
2019-01-22T11:32:04.381Z,99.99
2019-01-22T11:33:14.359Z,99.99
2019-01-22T11:34:24.344Z,99.99
2019-01-22T11:35:34.321Z,99.99
2019-01-22T11:36:44.297Z,99.99
2019-01-22T11:37:54.279Z,99.99
2019-01-22T11:39:04.259Z,99.99
2019-01-22T11:40:14.233Z,99.99
2019-01-22T11:41:24.214Z,99.99
2019-01-22T11:42:34.199Z,99.99
2019-01-22T11:43:43.856Z,99.99
2019-01-22T11:44:53.838Z,99.99
2019-01-22T11:46:03.839Z,99.99
2019-01-22T11:47:13.820Z,99.99
2019-01-22T11:48:23.803Z,99.99
2019-01-22T11:49:33.782Z,99.99
2019-01-22T11:50:43.764Z,99.99
2019-01-22T11:51:53.798Z,99.99
2019-01-22T11:53:03.782Z,99.99
2019-01-22T11:54:13.759Z,99.99
2019-01-22T11:55:23.741Z,99.99
2019-01-22T11:56:33.717Z,99.99
2019-01-22T11:57:43.894Z,99.99
2019-01-22T11:58:53.871Z,99.99
2019-01-22T12:00:03.853Z,99.99
2019-01-22T12:01:13.841Z,99.99
2019-01-22T12:02:23.822Z,99.99
2019-01-22T12:03:39.805Z,99.99
2019-01-22T12:04:49.795Z,99.99
2019-01-22T12:05:59.779Z,99.99
2019-01-22T12:07:09.773Z,99.99
2019-01-22T12:08:19.755Z,99.99
2019-01-22T12:09:29.784Z,99.99
2019-01-22T12:10:39.768Z,99.99
2019-01-22T12:11:49.759Z,99.99
2019-01-22T12:12:59.740Z,99.99
2019-01-22T12:14:09.730Z,99.99
2019-01-22T12:15:19.862Z,99.99
2019-01-22T12:16:30.396Z,99.99
2019-01-22T12:17:40.583Z,99.99
2019-01-22T12:18:50.571Z,99.99
2019-01-22T12:20:03.812Z,99.99
2019-01-22T12:21:13.951Z,99.99
2019-01-22T12:22:25.055Z,99.99
2019-01-22T12:23:35.131Z,99.99
2019-01-22T12:24:45.128Z,99.99
2019-01-22T12:25:59.500Z,99.99
2019-01-22T12:27:09.582Z,99.99
2019-01-22T12:28:19.564Z,99.99
2019-01-22T12:29:29.544Z,99.99
2019-01-22T12:30:39.529Z,99.99
2019-01-22T12:31:49.511Z,99.99
2019-01-22T12:32:59.542Z,99.99
2019-01-22T12:34:09.527Z,99.99
2019-01-22T12:35:19.506Z,99.99
2019-01-22T12:36:29.494Z,99.99
2019-01-22T12:37:39.478Z,99.99
2019-01-22T12:38:49.519Z,99.99
2019-01-22T12:39:59.498Z,99.99
2019-01-22T12:41:09.484Z,99.99
2019-01-22T12:42:19.465Z,99.99
2019-01-22T12:43:29.447Z,99.99
2019-01-22T12:44:39.536Z,99.99
2019-01-22T12:45:49.514Z,99.99
2019-01-22T12:46:59.501Z,99.99
2019-01-22T12:48:09.488Z,99.99
2019-01-22T12:49:19.473Z,99.99
2019-01-22T12:50:29.522Z,99.99
2019-01-22T12:51:39.510Z,99.99
2019-01-22T12:52:49.495Z,99.99
2019-01-22T12:53:59.476Z,99.99
2019-01-22T12:55:09.464Z,99.99
2019-01-22T12:56:19.504Z,99.99
2019-01-22T12:57:29.489Z,99.99
2019-01-22T12:58:39.471Z,99.99
2019-01-22T12:59:49.450Z,99.99
2019-01-22T13:00:59.429Z,99.99
2019-01-22T13:02:08.975Z,99.99
2019-01-22T13:03:18.952Z,99.99
2019-01-22T13:04:28.940Z,99.99
2019-01-22T13:05:38.925Z,99.99
2019-01-22T13:06:48.911Z,99.99
2019-01-22T13:07:58.992Z,99.99
2019-01-22T13:09:08.970Z,99.99
2019-01-22T13:10:18.954Z,99.99
2019-01-22T13:11:28.934Z,99.99
2019-01-22T13:12:38.917Z,99.99
2019-01-22T13:13:49.031Z,99.99
2019-01-22T13:14:58.764Z,99.99
2019-01-22T13:16:08.747Z,99.99
2019-01-22T13:17:18.724Z,99.99
2019-01-22T13:18:28.707Z,99.99
2019-01-22T13:19:38.795Z,99.99
2019-01-22T13:20:48.773Z,99.99
2019-01-22T13:21:58.756Z,99.99
2019-01-22T13:23:08.733Z,99.99
2019-01-22T13:24:18.715Z,99.99
2019-01-22T13:25:29.398Z,99.99
2019-01-22T13:26:39.376Z,99.99
2019-01-22T13:27:49.362Z,99.99
2019-01-22T13:28:59.374Z,99.99
2019-01-22T13:30:09.357Z,99.99
2019-01-22T13:31:19.444Z,99.99
2019-01-22T13:32:29.427Z,99.99
2019-01-22T13:33:39.405Z,99.99
2019-01-22T13:34:49.386Z,99.99
2019-01-22T13:35:59.387Z,99.99
2019-01-22T13:37:09.526Z,99.99
2019-01-22T13:38:19.512Z,99.99
2019-01-22T13:39:29.514Z,99.99
2019-01-22T13:40:39.492Z,99.99
2019-01-22T13:41:49.469Z,99.99
2019-01-22T13:42:59.497Z,99.99
2019-01-22T13:44:09.490Z,99.99
2019-01-22T13:45:19.475Z,99.99
2019-01-22T13:46:29.477Z,99.99
2019-01-22T13:47:39.454Z,99.99
2019-01-22T13:48:49.536Z,99.99
2019-01-22T13:49:59.520Z,99.99
2019-01-22T13:51:09.498Z,99.99
2019-01-22T13:52:19.482Z,99.99
2019-01-22T13:53:29.467Z,99.99
2019-01-22T13:54:39.554Z,99.99
2019-01-22T13:55:49.542Z,99.99
2019-01-22T13:56:59.519Z,99.99
2019-01-22T13:58:09.498Z,99.99
2019-01-22T13:59:20.606Z,99.99
2019-01-22T14:00:30.646Z,99.99
2019-01-22T14:01:40.648Z,99.99
2019-01-22T14:02:50.675Z,99.99
2019-01-22T14:04:00.672Z,99.99
2019-01-22T14:05:12.303Z,99.99
2019-01-22T14:06:22.381Z,99.99
2019-01-22T14:07:32.358Z,99.99
2019-01-22T14:08:42.335Z,99.99
2019-01-22T14:09:52.318Z,99.99
2019-01-22T14:11:02.293Z,99.99
2019-01-22T14:12:12.328Z,99.99
2019-01-22T14:13:22.305Z,99.99
2019-01-22T14:14:32.029Z,99.99
2019-01-22T14:15:42.004Z,99.99
2019-01-22T14:16:51.985Z,99.99
2019-01-22T14:18:02.025Z,99.99
2019-01-22T14:19:12.795Z,99.99
2019-01-22T14:20:22.780Z,99.99
2019-01-22T14:21:32.781Z,99.99
2019-01-22T14:22:42.757Z,99.99
2019-01-22T14:23:52.789Z,99.99
2019-01-22T14:25:02.762Z,99.99
2019-01-22T14:26:12.739Z,99.99
2019-01-22T14:27:28.433Z,99.99
2019-01-22T14:28:38.419Z,99.99
2019-01-22T14:29:48.502Z,99.99
2019-01-22T14:30:58.479Z,99.99
2019-01-22T14:32:08.456Z,99.99
2019-01-22T14:33:18.435Z,99.99
2019-01-22T14:34:28.426Z,99.99
2019-01-22T14:35:38.455Z,99.99
2019-01-22T14:36:48.450Z,99.99
2019-01-22T14:37:58.434Z,99.99
2019-01-22T14:39:08.432Z,99.99
2019-01-22T14:40:18.419Z,99.99
2019-01-22T14:41:28.449Z,99.99
2019-01-22T14:42:38.442Z,99.99
2019-01-22T14:43:48.430Z,99.99
2019-01-22T14:44:58.408Z,99.99
2019-01-22T14:46:08.396Z,99.99
2019-01-22T14:47:18.479Z,99.99
2019-01-22T14:48:28.459Z,99.99
2019-01-22T14:49:38.445Z,99.99
2019-01-22T14:50:48.424Z,99.99
2019-01-22T14:51:58.401Z,99.99
2019-01-22T14:53:08.401Z,99.99
2019-01-22T14:54:18.382Z,99.99
2019-01-22T14:55:28.362Z,99.99
2019-01-22T14:56:38.089Z,99.99
2019-01-22T14:57:48.066Z,99.99
2019-01-22T14:58:58.142Z,99.99
2019-01-22T15:00:08.120Z,99.99
2019-01-22T15:01:18.101Z,99.99
2019-01-22T15:02:28.075Z,99.99
2019-01-22T15:03:43.596Z,99.99